createdAt,value
2022-10-23T00:00:10.829Z,100749.73
2022-10-23T00:03:02.893Z,100754.28
2022-10-23T00:05:34.918Z,100752.66
2022-10-23T00:08:07.040Z,100750.55
2022-10-23T00:10:44.357Z,100747.27
2022-10-23T00:13:16.601Z,100743.98
2022-10-23T00:15:48.621Z,100747.92
2022-10-23T00:18:20.943Z,100746.23
2022-10-23T00:20:53.011Z,100745.21
2022-10-23T00:23:25.784Z,100736.86
2022-10-23T00:25:57.789Z,100735.91
2022-10-23T00:28:30.075Z,100731.11
2022-10-23T00:31:04.776Z,100731.67
2022-10-23T00:33:37.318Z,100729.55
2022-10-23T00:36:12.764Z,100733.05
2022-10-23T00:38:45.959Z,100727.70
2022-10-23T00:41:22.030Z,100729.38
2022-10-23T00:44:10.797Z,100730.41
2022-10-23T00:46:43.021Z,100728.21
2022-10-23T00:49:16.279Z,100724.80
2022-10-23T00:51:52.563Z,100732.85
2022-10-23T00:54:28.053Z,100739.02
2022-10-23T00:57:06.222Z,100741.11
2022-10-23T00:59:39.288Z,100747.23
2022-10-23T01:02:12.083Z,100742.45
2022-10-23T01:04:44.817Z,100741.39
2022-10-23T01:07:23.986Z,100743.85
2022-10-23T01:10:04.821Z,100744.64
2022-10-23T01:12:45.832Z,100741.10
2022-10-23T01:15:23.187Z,100741.52
2022-10-23T01:18:04.468Z,100738.60
2022-10-23T01:20:45.596Z,100735.83
2022-10-23T01:23:43.583Z,100732.66
2022-10-23T01:26:32.414Z,100733.20
2022-10-23T01:29:11.273Z,100722.83
2022-10-23T01:31:51.361Z,100727.70
2022-10-23T01:34:29.767Z,100729.80
2022-10-23T01:37:05.812Z,100730.38
2022-10-23T01:39:46.098Z,100735.12
2022-10-23T01:42:23.551Z,100741.97
2022-10-23T01:45:01.606Z,100742.23
2022-10-23T01:47:40.711Z,100745.35
2022-10-23T01:50:17.145Z,100746.58
2022-10-23T01:52:51.379Z,100753.54
2022-10-23T01:55:24.104Z,100754.46
2022-10-23T01:57:57.166Z,100760.30
2022-10-23T02:00:32.512Z,100754.23
2022-10-23T02:03:04.665Z,100753.84
2022-10-23T02:05:39.695Z,100748.65
2022-10-23T02:08:12.134Z,100752.06
2022-10-23T02:10:51.456Z,100755.41
2022-10-23T02:13:32.415Z,100752.14
2022-10-23T02:16:13.108Z,100752.50
2022-10-23T02:18:53.628Z,100755.98
2022-10-23T02:21:32.360Z,100759.73
2022-10-23T02:24:08.894Z,100761.08
2022-10-23T02:26:48.243Z,100758.14
2022-10-23T02:29:27.357Z,100760.20
2022-10-23T02:32:01.820Z,100765.11
2022-10-23T02:34:34.499Z,100771.03
2022-10-23T02:37:06.707Z,100768.51
2022-10-23T02:39:38.917Z,100772.27
2022-10-23T02:42:19.428Z,100778.54
2022-10-23T02:45:01.953Z,100776.05
2022-10-23T02:47:52.085Z,100774.80
2022-10-23T02:50:33.649Z,100776.41
2022-10-23T02:53:14.111Z,100776.04
2022-10-23T02:55:57.379Z,100773.82
2022-10-23T02:58:38.482Z,100768.89
2022-10-23T03:01:15.208Z,100772.05
2022-10-23T03:03:56.769Z,100771.86
2022-10-23T03:06:29.190Z,100771.08
2022-10-23T03:09:05.031Z,100765.80
2022-10-23T03:11:37.063Z,100757.59
2022-10-23T03:14:09.389Z,100765.64
2022-10-23T03:16:41.597Z,100775.25
2022-10-23T03:19:15.538Z,100777.38
2022-10-23T03:21:47.950Z,100776.02
2022-10-23T03:24:19.932Z,100773.87
2022-10-23T03:26:51.902Z,100771.39
2022-10-23T03:29:25.738Z,100782.24
2022-10-23T03:31:58.288Z,100772.99
2022-10-23T03:34:31.165Z,100779.83
2022-10-23T03:37:03.491Z,100784.92
2022-10-23T03:39:36.811Z,100788.45
2022-10-23T03:42:08.819Z,100788.13
2022-10-23T03:44:40.993Z,100789.80
2022-10-23T03:47:12.985Z,100795.23
2022-10-23T03:49:47.328Z,100795.80
2022-10-23T03:52:19.236Z,100796.31
2022-10-23T03:54:51.236Z,100796.23
2022-10-23T03:57:24.252Z,100788.65
2022-10-23T03:59:56.809Z,100793.81
2022-10-23T04:02:29.351Z,100800.26
2022-10-23T04:05:01.457Z,100801.94
2022-10-23T04:07:33.889Z,100795.28
2022-10-23T04:10:09.281Z,100794.32
2022-10-23T04:12:42.025Z,100795.07
2022-10-23T04:15:14.628Z,100794.45
2022-10-23T04:17:49.985Z,100782.40
2022-10-23T04:20:22.357Z,100789.67
2022-10-23T04:22:55.576Z,100793.34
2022-10-23T04:25:27.550Z,100791.44
2022-10-23T04:27:59.514Z,100787.98
2022-10-23T04:30:31.718Z,100792.17
2022-10-23T04:33:04.034Z,100788.41
2022-10-23T04:35:36.264Z,100789.80
2022-10-23T04:38:08.213Z,100792.59
2022-10-23T04:40:40.201Z,100793.71
2022-10-23T04:43:12.796Z,100795.04
2022-10-23T04:45:45.503Z,100798.07
2022-10-23T04:48:17.522Z,100808.88
2022-10-23T04:51:10.849Z,100805.03
2022-10-23T04:53:57.454Z,100805.30
2022-10-23T04:56:52.275Z,100802.68
2022-10-23T04:59:26.297Z,100796.80
2022-10-23T05:01:58.497Z,100810.80
2022-10-23T05:04:31.051Z,100818.80
2022-10-23T05:07:23.433Z,100818.96
2022-10-23T05:10:14.186Z,100820.56
2022-10-23T05:13:01.499Z,100822.23
2022-10-23T05:15:34.240Z,100827.50
2022-10-23T05:18:12.923Z,100828.42
2022-10-23T05:20:49.688Z,100833.01
2022-10-23T05:23:23.734Z,100834.88
2022-10-23T05:26:03.269Z,100828.86
2022-10-23T05:28:36.550Z,100826.65
2022-10-23T05:31:09.729Z,100826.84
2022-10-23T05:33:44.499Z,100827.60
2022-10-23T05:36:17.477Z,100829.09
2022-10-23T05:38:50.115Z,100824.15
2022-10-23T05:41:23.541Z,100827.46
2022-10-23T05:43:55.997Z,100819.70
2022-10-23T05:46:46.859Z,100834.56
2022-10-23T05:49:27.030Z,100837.73
2022-10-23T05:52:20.221Z,100838.42
2022-10-23T05:55:15.067Z,100827.21
2022-10-23T05:57:53.536Z,100831.92
2022-10-23T06:00:36.567Z,100832.77
2022-10-23T06:03:19.686Z,100831.27
2022-10-23T06:05:55.631Z,100832.17
2022-10-23T06:08:33.466Z,100824.95
2022-10-23T06:11:11.130Z,100836.33
2022-10-23T06:13:46.067Z,100836.16
2022-10-23T06:16:21.593Z,100831.04
2022-10-23T06:18:53.693Z,100826.08
2022-10-23T06:21:26.122Z,100816.80
2022-10-23T06:24:01.559Z,100829.52
2022-10-23T06:26:36.813Z,100827.65
2022-10-23T06:29:27.259Z,100833.75
2022-10-23T06:31:59.561Z,100837.65
2022-10-23T06:34:32.367Z,100833.29
2022-10-23T06:37:04.602Z,100836.36
2022-10-23T06:40:08.028Z,100832.48
2022-10-23T06:43:12.537Z,100830.55
2022-10-23T06:46:05.044Z,100832.58
2022-10-23T06:49:00.174Z,100833.11
2022-10-23T06:51:36.511Z,100831.95
2022-10-23T06:54:09.466Z,100831.02
2022-10-23T06:56:53.859Z,100834.29
2022-10-23T06:59:36.642Z,100839.22
2022-10-23T07:02:10.163Z,100836.65
2022-10-23T07:04:42.566Z,100834.52
2022-10-23T07:07:19.979Z,100835.46
2022-10-23T07:09:53.581Z,100834.05
2022-10-23T07:12:42.789Z,100834.80
2022-10-23T07:15:40.880Z,100838.98
2022-10-23T07:18:18.992Z,100846.73
2022-10-23T07:21:14.308Z,100847.34
2022-10-23T07:23:47.248Z,100850.79
2022-10-23T07:26:20.575Z,100847.50
2022-10-23T07:28:55.208Z,100851.59
2022-10-23T07:31:28.152Z,100847.61
2022-10-23T07:34:19.156Z,100854.13
2022-10-23T07:36:52.542Z,100852.48
2022-10-23T07:39:24.893Z,100855.95
2022-10-23T07:41:57.164Z,100855.17
2022-10-23T07:44:30.080Z,100855.52
2022-10-23T07:47:02.079Z,100860.09
2022-10-23T07:49:34.116Z,100867.30
2022-10-23T07:52:07.547Z,100869.23
2022-10-23T07:54:56.957Z,100877.08
2022-10-23T07:57:30.464Z,100873.13
2022-10-23T08:00:14.764Z,100876.04
2022-10-23T08:02:46.904Z,100879.49
2022-10-23T08:05:21.575Z,100882.80
2022-10-23T08:07:59.680Z,100882.05
2022-10-23T08:10:32.054Z,100884.75
2022-10-23T08:13:04.666Z,100885.88
2022-10-23T08:15:56.880Z,100886.28
2022-10-23T08:18:49.868Z,100886.20
2022-10-23T08:21:22.173Z,100891.76
2022-10-23T08:23:56.547Z,100895.75
2022-10-23T08:26:30.383Z,100902.45
2022-10-23T08:29:02.797Z,100900.10
2022-10-23T08:31:36.216Z,100902.44
2022-10-23T08:34:21.321Z,100901.27
2022-10-23T08:36:54.157Z,100899.22
2022-10-23T08:39:26.273Z,100904.99
2022-10-23T08:42:27.336Z,100903.20
2022-10-23T08:45:07.476Z,100899.52
2022-10-23T08:47:48.260Z,100891.66
2022-10-23T08:50:56.530Z,100892.94
2022-10-23T08:53:35.823Z,100888.86
2022-10-23T08:56:13.740Z,100887.52
2022-10-23T09:01:39.738Z,100886.70
2022-10-23T09:04:15.256Z,100893.33
2022-10-23T09:07:00.077Z,100896.04
2022-10-23T09:09:51.459Z,100898.93
2022-10-23T09:12:26.979Z,100902.35
2022-10-23T09:15:14.948Z,100898.64
2022-10-23T09:17:49.134Z,100902.91
2022-10-23T09:20:24.500Z,100903.77
2022-10-23T09:23:01.347Z,100906.92
2022-10-23T09:25:36.395Z,100909.98
2022-10-23T09:28:07.530Z,100905.29
2022-10-23T09:30:42.704Z,100908.43
2022-10-23T09:33:17.221Z,100908.06
2022-10-23T09:35:59.079Z,100913.48
2022-10-23T09:38:34.619Z,100920.08
2022-10-23T09:41:15.181Z,100921.80
2022-10-23T09:43:47.632Z,100923.98
2022-10-23T09:46:24.728Z,100932.71
2022-10-23T09:49:03.575Z,100933.53
2022-10-23T09:51:41.865Z,100928.85
2022-10-23T09:54:19.660Z,100924.33
2022-10-23T09:56:52.979Z,100918.84
2022-10-23T09:59:29.058Z,100916.70
2022-10-23T10:02:04.041Z,100913.34
2022-10-23T10:04:55.931Z,100914.61
2022-10-23T10:07:33.394Z,100916.08
2022-10-23T10:10:18.073Z,100917.40
2022-10-23T10:12:58.402Z,100904.91
2022-10-23T10:15:37.512Z,100915.86
2022-10-23T10:18:23.186Z,100898.52
2022-10-23T10:21:15.364Z,100909.23
2022-10-23T10:23:54.504Z,100910.92
2022-10-23T10:26:36.321Z,100906.79
2022-10-23T10:29:20.278Z,100907.00
2022-10-23T10:32:04.416Z,100907.23
2022-10-23T10:34:44.323Z,100907.16
2022-10-23T10:37:27.979Z,100903.13
2022-10-23T10:40:08.560Z,100902.41
2022-10-23T10:42:55.675Z,100897.20
2022-10-23T10:45:34.455Z,100891.14
2022-10-23T10:48:21.730Z,100887.89
2022-10-23T10:51:29.051Z,100887.61
2022-10-23T10:54:16.504Z,100883.91
2022-10-23T10:56:50.239Z,100882.08
2022-10-23T10:59:25.130Z,100883.52
2022-10-23T11:02:01.268Z,100884.18
2022-10-23T11:04:38.392Z,100885.98
2022-10-23T11:07:16.120Z,100877.18
2022-10-23T11:09:49.009Z,100851.40
2022-10-23T11:12:24.894Z,100867.13
2022-10-23T11:14:57.745Z,100868.59
2022-10-23T11:17:37.595Z,100863.58
2022-10-23T11:20:26.496Z,100848.56
2022-10-23T11:23:07.151Z,100856.56
2022-10-23T11:25:57.902Z,100859.09
2022-10-23T11:28:48.617Z,100853.64
2022-10-23T11:31:30.957Z,100848.42
2022-10-23T11:34:24.455Z,100844.68
2022-10-23T11:36:58.607Z,100844.56
2022-10-23T11:39:32.580Z,100844.24
2022-10-23T11:42:34.862Z,100845.12
2022-10-23T11:45:21.225Z,100835.59
2022-10-23T11:48:01.319Z,100832.80
2022-10-23T11:50:50.631Z,100831.17
2022-10-23T11:53:40.644Z,100826.80
2022-10-23T11:56:33.988Z,100819.55
2022-10-23T11:59:24.489Z,100807.40
2022-10-23T12:01:58.740Z,100809.89
2022-10-23T12:04:39.515Z,100804.89
2022-10-23T12:07:24.101Z,100805.84
2022-10-23T12:10:00.648Z,100799.16
2022-10-23T12:12:40.934Z,100799.84
2022-10-23T12:15:23.511Z,100796.69
2022-10-23T12:17:58.628Z,100794.75
2022-10-23T12:20:46.102Z,100797.26
2022-10-23T12:23:53.356Z,100803.19
2022-10-23T12:26:50.876Z,100803.98
2022-10-23T12:29:34.300Z,100803.89
2022-10-23T12:32:18.636Z,100800.94
2022-10-23T12:34:58.644Z,100794.61
2022-10-23T12:37:49.490Z,100795.86
2022-10-23T12:40:22.060Z,100785.55
2022-10-23T12:42:56.079Z,100777.02
2022-10-23T12:45:31.051Z,100774.55
2022-10-23T12:48:05.594Z,100775.61
2022-10-23T12:50:38.334Z,100775.63
2022-10-23T12:53:19.006Z,100778.69
2022-10-23T12:55:55.683Z,100773.19
2022-10-23T12:58:32.903Z,100776.36
2022-10-23T13:01:08.492Z,100773.58
2022-10-23T13:03:41.414Z,100770.66
2022-10-23T13:06:14.679Z,100771.28
2022-10-23T13:08:49.040Z,100771.77
2022-10-23T13:11:34.926Z,100758.59
2022-10-23T13:14:15.293Z,100766.45
2022-10-23T13:16:47.416Z,100746.17
2022-10-23T13:19:27.746Z,100744.05
2022-10-23T13:22:00.535Z,100738.55
2022-10-23T13:24:33.921Z,100727.00
2022-10-23T13:27:25.729Z,100743.54
2022-10-23T13:29:58.423Z,100746.59
2022-10-23T13:32:33.154Z,100745.55
2022-10-23T13:35:20.811Z,100729.00
2022-10-23T13:37:53.766Z,100746.50
2022-10-23T13:40:28.376Z,100723.05
2022-10-23T13:43:00.674Z,100742.73
2022-10-23T13:45:36.822Z,100746.20
2022-10-23T13:48:16.188Z,100747.60
2022-10-23T13:50:48.456Z,100735.05
2022-10-23T13:53:21.358Z,100744.08
2022-10-23T13:55:57.800Z,100739.33
2022-10-23T13:58:30.905Z,100739.39
2022-10-23T14:01:03.847Z,100734.24
2022-10-23T14:03:36.739Z,100732.13
2022-10-23T14:06:09.624Z,100734.89
2022-10-23T14:08:41.779Z,100728.50
2022-10-23T14:13:53.601Z,100739.19
2022-10-23T14:16:25.994Z,100737.54
2022-10-23T14:18:58.503Z,100732.17
2022-10-23T14:21:30.713Z,100727.77
2022-10-23T14:24:02.863Z,100728.05
2022-10-23T14:26:35.148Z,100723.27
2022-10-23T14:29:11.395Z,100719.13
2022-10-23T14:31:46.266Z,100716.79
2022-10-23T14:34:18.237Z,100717.15
2022-10-23T14:37:03.518Z,100716.00
2022-10-23T14:39:39.900Z,100712.99
2022-10-23T14:42:11.978Z,100713.77
2022-10-23T14:44:45.079Z,100704.31
2022-10-23T14:47:19.058Z,100686.55
2022-10-23T14:49:53.502Z,100688.43
2022-10-23T14:52:26.114Z,100683.72
2022-10-23T14:54:58.222Z,100688.02
2022-10-23T14:57:30.678Z,100688.44
2022-10-23T15:00:03.290Z,100691.44
2022-10-23T15:02:37.396Z,100679.13
2022-10-23T15:05:10.389Z,100696.64
2022-10-23T15:07:42.630Z,100691.60
2022-10-23T15:12:52.956Z,100689.15
2022-10-23T15:15:25.152Z,100690.05
2022-10-23T15:17:57.607Z,100694.41
2022-10-23T15:20:29.631Z,100680.30
2022-10-23T15:23:03.095Z,100684.71
2022-10-23T15:25:35.345Z,100685.91
2022-10-23T15:28:07.724Z,100685.92
2022-10-23T15:30:43.558Z,100688.77
2022-10-23T15:33:19.192Z,100676.36
2022-10-23T15:35:53.002Z,100694.88
2022-10-23T15:38:36.981Z,100698.60
2022-10-23T15:41:18.707Z,100682.14
2022-10-23T15:43:52.087Z,100680.30
2022-10-23T15:46:24.493Z,100688.95
2022-10-23T15:48:57.365Z,100687.42
2022-10-23T15:51:29.614Z,100669.96
2022-10-23T15:54:01.799Z,100675.73
2022-10-23T15:56:35.354Z,100674.45
2022-10-23T15:59:07.606Z,100674.30
2022-10-23T16:01:40.193Z,100671.97
2022-10-23T16:04:12.572Z,100674.30
2022-10-23T16:06:45.116Z,100669.97
2022-10-23T16:09:18.176Z,100670.38
2022-10-23T16:11:50.615Z,100667.81
2022-10-23T16:14:22.783Z,100668.22
2022-10-23T16:16:55.005Z,100679.11
2022-10-23T16:19:27.192Z,100663.80
2022-10-23T16:21:59.416Z,100677.75
2022-10-23T16:24:32.212Z,100680.73
2022-10-23T16:27:04.648Z,100681.20
2022-10-23T16:29:36.745Z,100680.55
2022-10-23T16:32:09.138Z,100677.34
2022-10-23T16:34:41.965Z,100676.48
2022-10-23T16:37:14.115Z,100673.58
2022-10-23T16:39:57.571Z,100677.98
2022-10-23T16:42:48.289Z,100671.64
2022-10-23T16:45:43.821Z,100683.42
2022-10-23T16:48:15.954Z,100682.05
2022-10-23T16:50:48.045Z,100670.09
2022-10-23T16:53:20.317Z,100670.65
2022-10-23T16:55:52.617Z,100682.45
2022-10-23T16:58:25.421Z,100667.85
2022-10-23T17:01:03.419Z,100675.39
2022-10-23T17:03:39.100Z,100672.08
2022-10-23T17:06:13.431Z,100671.73
2022-10-23T17:08:46.037Z,100670.14
2022-10-23T17:11:20.381Z,100669.73
2022-10-23T17:13:58.545Z,100671.89
2022-10-23T17:16:34.566Z,100672.20
2022-10-23T17:19:20.787Z,100667.88
2022-10-23T17:22:01.020Z,100667.55
2022-10-23T17:24:33.770Z,100671.94
2022-10-23T17:27:06.621Z,100671.48
2022-10-23T17:29:39.725Z,100668.98
2022-10-23T17:32:11.768Z,100671.06
2022-10-23T17:34:44.265Z,100666.48
2022-10-23T17:37:17.337Z,100669.54
2022-10-23T17:39:49.314Z,100668.34
2022-10-23T17:42:21.415Z,100669.30
2022-10-23T17:44:53.531Z,100667.29
2022-10-23T17:47:25.716Z,100668.08
2022-10-23T17:49:58.560Z,100656.13
2022-10-23T17:52:31.007Z,100662.72
2022-10-23T17:55:03.248Z,100662.56
2022-10-23T17:57:35.366Z,100658.55
2022-10-23T18:00:09.618Z,100656.23
2022-10-23T18:02:52.772Z,100653.41
2022-10-23T18:05:25.070Z,100643.25
2022-10-23T18:07:57.431Z,100635.39
2022-10-23T18:10:29.702Z,100624.33
2022-10-23T18:13:02.133Z,100632.36
2022-10-23T18:15:36.611Z,100634.19
2022-10-23T18:18:08.862Z,100630.41
2022-10-23T18:20:43.844Z,100624.32
2022-10-23T18:23:15.913Z,100617.27
2022-10-23T18:25:48.117Z,100618.46
2022-10-23T18:28:20.811Z,100621.36
2022-10-23T18:30:56.174Z,100612.23
2022-10-23T18:33:29.804Z,100603.90
2022-10-23T18:36:02.097Z,100607.42
2022-10-23T18:38:37.032Z,100599.72
2022-10-23T18:41:09.269Z,100599.41
2022-10-23T18:43:44.099Z,100591.31
2022-10-23T18:46:17.681Z,100588.66
2022-10-23T18:48:52.099Z,100582.19
2022-10-23T18:51:24.068Z,100574.73
2022-10-23T18:53:56.570Z,100573.13
2022-10-23T18:56:28.560Z,100572.73
2022-10-23T18:59:02.910Z,100565.99
2022-10-23T19:01:35.706Z,100559.52
2022-10-23T19:04:08.842Z,100560.07
2022-10-23T19:06:41.946Z,100562.23
2022-10-23T19:09:16.498Z,100561.10
2022-10-23T19:11:48.698Z,100563.58
2022-10-23T19:14:20.904Z,100559.56
2022-10-23T19:17:01.016Z,100553.56
2022-10-23T19:19:36.214Z,100552.84
2022-10-23T19:22:09.622Z,100548.77
2022-10-23T19:24:45.329Z,100552.77
2022-10-23T19:27:18.439Z,100554.18
2022-10-23T19:29:52.304Z,100558.52
2022-10-23T19:32:24.557Z,100560.12
2022-10-23T19:34:56.699Z,100560.98
2022-10-23T19:37:28.833Z,100555.16
2022-10-23T19:40:02.573Z,100543.48
2022-10-23T19:42:35.189Z,100547.25
2022-10-23T19:45:09.451Z,100549.51
2022-10-23T19:47:42.612Z,100546.13
2022-10-23T19:50:18.854Z,100550.15
2022-10-23T19:52:51.229Z,100540.23
2022-10-23T19:55:23.326Z,100540.39
2022-10-23T19:57:55.445Z,100537.20
2022-10-23T20:00:28.537Z,100538.40
2022-10-23T20:03:00.756Z,100536.64
2022-10-23T20:05:33.394Z,100536.95
2022-10-23T20:08:06.277Z,100538.71
2022-10-23T20:10:43.866Z,100537.98
2022-10-23T20:13:19.931Z,100533.27
2022-10-23T20:15:52.879Z,100531.41
2022-10-23T20:18:25.961Z,100534.69
2022-10-23T20:20:58.324Z,100546.14
2022-10-23T20:23:30.795Z,100542.94
2022-10-23T20:26:14.642Z,100540.38
2022-10-23T20:28:51.392Z,100546.80
2022-10-23T20:31:25.714Z,100545.12
2022-10-23T20:33:58.992Z,100539.27
2022-10-23T20:36:34.944Z,100535.20
2022-10-23T20:39:15.285Z,100532.85
2022-10-23T20:41:47.898Z,100523.40
2022-10-23T20:44:22.669Z,100515.72
2022-10-23T20:46:56.242Z,100506.11
2022-10-23T20:49:28.887Z,100502.67
2022-10-23T20:52:01.439Z,100488.81
2022-10-23T20:54:35.467Z,100500.25
2022-10-23T20:57:08.773Z,100499.61
2022-10-23T20:59:40.979Z,100499.38
2022-10-23T21:02:13.434Z,100499.05
2022-10-23T21:04:47.711Z,100493.92
2022-10-23T21:07:20.955Z,100490.71
2022-10-23T21:09:53.096Z,100499.04
2022-10-23T21:12:25.365Z,100489.42
2022-10-23T21:14:58.632Z,100483.09
2022-10-23T21:17:35.805Z,100478.61
2022-10-23T21:20:09.543Z,100474.77
2022-10-23T21:22:41.786Z,100469.97
2022-10-23T21:25:15.808Z,100468.98
2022-10-23T21:27:48.019Z,100474.28
2022-10-23T21:30:20.221Z,100469.95
2022-10-23T21:32:52.334Z,100466.42
2022-10-23T21:35:26.586Z,100472.65
2022-10-23T21:38:01.458Z,100467.94
2022-10-23T21:40:33.768Z,100471.61
2022-10-23T21:43:07.057Z,100469.43
2022-10-23T21:45:40.949Z,100470.71
2022-10-23T21:48:12.938Z,100469.66
2022-10-23T21:50:45.732Z,100461.85
2022-10-23T21:53:18.269Z,100467.38
2022-10-23T21:55:50.358Z,100468.19
2022-10-23T21:58:24.816Z,100465.77
2022-10-23T22:00:56.941Z,100469.60
2022-10-23T22:03:29.596Z,100465.43
2022-10-23T22:06:02.644Z,100462.94
2022-10-23T22:08:35.116Z,100455.19
2022-10-23T22:11:08.722Z,100454.62
2022-10-23T22:13:43.749Z,100446.77
2022-10-23T22:16:16.581Z,100434.88
2022-10-23T22:18:49.306Z,100447.34
2022-10-23T22:21:24.173Z,100444.73
2022-10-23T22:23:59.743Z,100447.47
2022-10-23T22:26:34.532Z,100447.36
2022-10-23T22:29:08.494Z,100439.47
2022-10-23T22:31:44.218Z,100441.88
2022-10-23T22:34:34.885Z,100445.30
2022-10-23T22:37:13.861Z,100428.86
2022-10-23T22:39:45.797Z,100424.70
2022-10-23T22:42:18.102Z,100437.61
2022-10-23T22:44:50.218Z,100431.54
2022-10-23T22:47:22.097Z,100425.46
2022-10-23T22:49:54.385Z,100417.45
2022-10-23T22:52:26.479Z,100409.46
2022-10-23T22:54:58.486Z,100404.67
2022-10-23T22:57:31.848Z,100404.17
2022-10-23T23:00:04.225Z,100403.94
2022-10-23T23:02:36.226Z,100407.20
2022-10-23T23:05:11.183Z,100406.48
2022-10-23T23:07:41.877Z,100405.13
2022-10-23T23:10:14.000Z,100405.14
2022-10-23T23:12:46.417Z,100409.30
2022-10-23T23:15:19.205Z,100411.38
2022-10-23T23:17:51.233Z,100414.89
2022-10-23T23:20:23.311Z,100414.89
2022-10-23T23:22:55.294Z,100423.20
2022-10-23T23:25:27.572Z,100422.80
2022-10-23T23:28:00.037Z,100415.31
2022-10-23T23:30:32.009Z,100408.27
2022-10-23T23:33:04.342Z,100405.23
2022-10-23T23:35:40.188Z,100400.04
2022-10-23T23:38:13.242Z,100392.91
2022-10-23T23:40:52.807Z,100386.27
2022-10-23T23:43:29.994Z,100382.83
2022-10-23T23:46:02.276Z,100392.98
2022-10-23T23:48:34.279Z,100393.40
2022-10-23T23:51:07.009Z,100394.60
2022-10-23T23:53:39.321Z,100394.91
2022-10-23T23:56:11.977Z,100393.16
2022-10-23T23:58:44.222Z,100386.61
